sensor_id;sensor_type;location;lat;lon;timestamp;P1;durP1;ratioP1;P2;durP2;ratioP2
22774;SDS011;11554;51.106;3.684;2022-08-06T00:00:00;7.80;;;2.00;;
22774;SDS011;11554;51.106;3.684;2022-08-06T00:05:02;7.80;;;2.00;;
22774;SDS011;11554;51.106;3.684;2022-08-06T00:10:00;4.30;;;1.60;;
22774;SDS011;11554;51.106;3.684;2022-08-06T00:15:01;4.30;;;1.60;;
22774;SDS011;11554;51.106;3.684;2022-08-06T00:20:00;5.60;;;1.70;;
22774;SDS011;11554;51.106;3.684;2022-08-06T00:25:00;5.60;;;1.70;;
22774;SDS011;11554;51.106;3.684;2022-08-06T00:30:01;6.50;;;1.80;;
22774;SDS011;11554;51.106;3.684;2022-08-06T00:35:00;6.50;;;1.80;;
22774;SDS011;11554;51.106;3.684;2022-08-06T00:40:00;4.00;;;1.60;;
22774;SDS011;11554;51.106;3.684;2022-08-06T00:45:00;4.00;;;1.60;;
22774;SDS011;11554;51.106;3.684;2022-08-06T00:50:00;6.60;;;1.70;;
22774;SDS011;11554;51.106;3.684;2022-08-06T00:55:00;6.60;;;1.70;;
22774;SDS011;11554;51.106;3.684;2022-08-06T01:00:00;9.10;;;2.10;;
22774;SDS011;11554;51.106;3.684;2022-08-06T01:05:00;9.10;;;2.10;;
22774;SDS011;11554;51.106;3.684;2022-08-06T01:10:00;4.90;;;1.40;;
22774;SDS011;11554;51.106;3.684;2022-08-06T01:15:00;4.90;;;1.40;;
22774;SDS011;11554;51.106;3.684;2022-08-06T01:20:11;3.90;;;1.50;;
22774;SDS011;11554;51.106;3.684;2022-08-06T01:25:10;3.90;;;1.50;;
22774;SDS011;11554;51.106;3.684;2022-08-06T01:30:04;5.90;;;1.70;;
22774;SDS011;11554;51.106;3.684;2022-08-06T01:35:04;5.90;;;1.70;;
22774;SDS011;11554;51.106;3.684;2022-08-06T01:40:03;4.50;;;1.50;;
22774;SDS011;11554;51.106;3.684;2022-08-06T01:45:01;4.50;;;1.50;;
22774;SDS011;11554;51.106;3.684;2022-08-06T01:50:03;4.70;;;1.70;;
22774;SDS011;11554;51.106;3.684;2022-08-06T01:55:01;4.70;;;1.70;;
22774;SDS011;11554;51.106;3.684;2022-08-06T02:00:01;5.50;;;1.70;;
22774;SDS011;11554;51.106;3.684;2022-08-06T02:05:01;5.50;;;1.70;;
22774;SDS011;11554;51.106;3.684;2022-08-06T02:10:02;7.10;;;2.10;;
22774;SDS011;11554;51.106;3.684;2022-08-06T02:15:03;7.10;;;2.10;;
22774;SDS011;11554;51.106;3.684;2022-08-06T02:20:02;3.80;;;1.40;;
22774;SDS011;11554;51.106;3.684;2022-08-06T02:25:03;3.80;;;1.40;;
22774;SDS011;11554;51.106;3.684;2022-08-06T02:30:01;5.10;;;1.70;;
22774;SDS011;11554;51.106;3.684;2022-08-06T02:35:00;5.10;;;1.70;;
22774;SDS011;11554;51.106;3.684;2022-08-06T02:40:05;6.20;;;2.10;;
22774;SDS011;11554;51.106;3.684;2022-08-06T02:45:03;6.20;;;2.10;;
22774;SDS011;11554;51.106;3.684;2022-08-06T02:50:02;3.70;;;1.80;;
22774;SDS011;11554;51.106;3.684;2022-08-06T02:55:05;3.70;;;1.80;;
22774;SDS011;11554;51.106;3.684;2022-08-06T03:00:04;6.40;;;2.20;;
22774;SDS011;11554;51.106;3.684;2022-08-06T03:05:02;6.40;;;2.20;;
22774;SDS011;11554;51.106;3.684;2022-08-06T03:10:01;5.60;;;2.20;;
22774;SDS011;11554;51.106;3.684;2022-08-06T03:15:02;5.60;;;2.20;;
22774;SDS011;11554;51.106;3.684;2022-08-06T03:20:02;4.80;;;2.00;;
22774;SDS011;11554;51.106;3.684;2022-08-06T03:25:01;4.80;;;2.00;;
22774;SDS011;11554;51.106;3.684;2022-08-06T03:30:00;4.70;;;2.20;;
22774;SDS011;11554;51.106;3.684;2022-08-06T03:35:00;4.70;;;2.20;;
22774;SDS011;11554;51.106;3.684;2022-08-06T03:40:02;4.70;;;1.90;;
22774;SDS011;11554;51.106;3.684;2022-08-06T03:45:00;4.70;;;1.90;;
22774;SDS011;11554;51.106;3.684;2022-08-06T03:50:04;5.00;;;2.10;;
22774;SDS011;11554;51.106;3.684;2022-08-06T03:55:03;5.00;;;2.10;;
22774;SDS011;11554;51.106;3.684;2022-08-06T04:00:01;4.90;;;1.60;;
22774;SDS011;11554;51.106;3.684;2022-08-06T04:05:02;4.90;;;1.60;;
22774;SDS011;11554;51.106;3.684;2022-08-06T04:10:01;6.80;;;2.10;;
22774;SDS011;11554;51.106;3.684;2022-08-06T04:15:00;6.80;;;2.10;;
22774;SDS011;11554;51.106;3.684;2022-08-06T04:20:00;4.30;;;1.90;;
22774;SDS011;11554;51.106;3.684;2022-08-06T04:25:00;4.30;;;1.90;;
22774;SDS011;11554;51.106;3.684;2022-08-06T04:30:00;4.30;;;1.90;;
22774;SDS011;11554;51.106;3.684;2022-08-06T04:35:03;4.30;;;1.90;;
22774;SDS011;11554;51.106;3.684;2022-08-06T04:40:00;6.20;;;2.40;;
22774;SDS011;11554;51.106;3.684;2022-08-06T04:45:00;6.20;;;2.40;;
22774;SDS011;11554;51.106;3.684;2022-08-06T04:50:00;5.40;;;2.00;;
22774;SDS011;11554;51.106;3.684;2022-08-06T04:55:00;5.40;;;2.00;;
22774;SDS011;11554;51.106;3.684;2022-08-06T05:00:00;4.50;;;1.50;;
22774;SDS011;11554;51.106;3.684;2022-08-06T05:05:00;4.50;;;1.50;;
22774;SDS011;11554;51.106;3.684;2022-08-06T05:10:00;7.10;;;2.60;;
22774;SDS011;11554;51.106;3.684;2022-08-06T05:15:11;7.10;;;2.60;;
22774;SDS011;11554;51.106;3.684;2022-08-06T05:20:04;6.10;;;2.50;;
22774;SDS011;11554;51.106;3.684;2022-08-06T05:25:00;6.10;;;2.50;;
22774;SDS011;11554;51.106;3.684;2022-08-06T05:30:01;7.60;;;2.60;;
22774;SDS011;11554;51.106;3.684;2022-08-06T05:35:00;7.60;;;2.60;;
22774;SDS011;11554;51.106;3.684;2022-08-06T05:40:00;5.90;;;2.60;;
22774;SDS011;11554;51.106;3.684;2022-08-06T05:45:00;5.90;;;2.60;;
22774;SDS011;11554;51.106;3.684;2022-08-06T05:50:04;6.70;;;2.60;;
22774;SDS011;11554;51.106;3.684;2022-08-06T05:55:02;6.70;;;2.60;;
22774;SDS011;11554;51.106;3.684;2022-08-06T06:00:04;6.00;;;2.50;;
22774;SDS011;11554;51.106;3.684;2022-08-06T06:05:00;6.00;;;2.50;;
22774;SDS011;11554;51.106;3.684;2022-08-06T06:10:02;4.10;;;2.00;;
22774;SDS011;11554;51.106;3.684;2022-08-06T06:15:01;4.10;;;2.00;;
22774;SDS011;11554;51.106;3.684;2022-08-06T06:20:10;7.20;;;2.50;;
22774;SDS011;11554;51.106;3.684;2022-08-06T06:25:04;7.20;;;2.50;;
22774;SDS011;11554;51.106;3.684;2022-08-06T06:30:02;4.10;;;1.80;;
22774;SDS011;11554;51.106;3.684;2022-08-06T06:35:03;4.10;;;1.80;;
22774;SDS011;11554;51.106;3.684;2022-08-06T06:40:12;7.30;;;1.80;;
22774;SDS011;11554;51.106;3.684;2022-08-06T06:45:05;7.30;;;1.80;;
22774;SDS011;11554;51.106;3.684;2022-08-06T06:50:04;6.30;;;1.80;;
22774;SDS011;11554;51.106;3.684;2022-08-06T06:55:05;6.30;;;1.80;;
22774;SDS011;11554;51.106;3.684;2022-08-06T07:00:02;4.10;;;1.70;;
22774;SDS011;11554;51.106;3.684;2022-08-06T07:05:01;4.10;;;1.70;;
22774;SDS011;11554;51.106;3.684;2022-08-06T07:10:02;6.70;;;1.70;;
22774;SDS011;11554;51.106;3.684;2022-08-06T07:15:02;6.70;;;1.70;;
22774;SDS011;11554;51.106;3.684;2022-08-06T07:20:04;4.70;;;1.80;;
22774;SDS011;11554;51.106;3.684;2022-08-06T07:25:02;4.70;;;1.80;;
22774;SDS011;11554;51.106;3.684;2022-08-06T07:30:01;6.00;;;1.70;;
22774;SDS011;11554;51.106;3.684;2022-08-06T07:35:01;6.00;;;1.70;;
22774;SDS011;11554;51.106;3.684;2022-08-06T07:40:01;4.60;;;1.70;;
22774;SDS011;11554;51.106;3.684;2022-08-06T07:45:02;4.60;;;1.70;;
22774;SDS011;11554;51.106;3.684;2022-08-06T07:50:00;4.90;;;1.60;;
22774;SDS011;11554;51.106;3.684;2022-08-06T07:55:00;4.90;;;1.60;;
22774;SDS011;11554;51.106;3.684;2022-08-06T08:00:00;3.90;;;1.30;;
22774;SDS011;11554;51.106;3.684;2022-08-06T08:05:00;3.90;;;1.30;;
22774;SDS011;11554;51.106;3.684;2022-08-06T08:10:00;4.60;;;1.40;;
22774;SDS011;11554;51.106;3.684;2022-08-06T08:15:01;4.60;;;1.40;;
22774;SDS011;11554;51.106;3.684;2022-08-06T08:20:02;3.10;;;0.80;;
22774;SDS011;11554;51.106;3.684;2022-08-06T08:25:00;3.10;;;0.80;;
22774;SDS011;11554;51.106;3.684;2022-08-06T08:30:00;3.40;;;0.90;;
22774;SDS011;11554;51.106;3.684;2022-08-06T08:35:00;3.40;;;0.90;;
22774;SDS011;11554;51.106;3.684;2022-08-06T08:40:00;4.70;;;1.20;;
22774;SDS011;11554;51.106;3.684;2022-08-06T08:45:00;4.70;;;1.20;;
22774;SDS011;11554;51.106;3.684;2022-08-06T08:50:02;3.50;;;1.10;;
22774;SDS011;11554;51.106;3.684;2022-08-06T08:55:03;3.50;;;1.10;;
22774;SDS011;11554;51.106;3.684;2022-08-06T09:00:01;3.70;;;1.00;;
22774;SDS011;11554;51.106;3.684;2022-08-06T09:05:00;3.70;;;1.00;;
22774;SDS011;11554;51.106;3.684;2022-08-06T09:10:00;4.30;;;1.20;;
22774;SDS011;11554;51.106;3.684;2022-08-06T09:15:00;4.30;;;1.20;;
22774;SDS011;11554;51.106;3.684;2022-08-06T09:20:00;2.90;;;1.60;;
22774;SDS011;11554;51.106;3.684;2022-08-06T09:25:00;2.90;;;1.60;;
22774;SDS011;11554;51.106;3.684;2022-08-06T09:30:03;4.70;;;1.10;;
22774;SDS011;11554;51.106;3.684;2022-08-06T09:35:00;4.70;;;1.10;;
22774;SDS011;11554;51.106;3.684;2022-08-06T09:40:10;2.60;;;0.80;;
22774;SDS011;11554;51.106;3.684;2022-08-06T09:45:05;2.60;;;0.80;;
22774;SDS011;11554;51.106;3.684;2022-08-06T09:50:00;2.30;;;0.80;;
22774;SDS011;11554;51.106;3.684;2022-08-06T09:55:00;2.30;;;0.80;;
22774;SDS011;11554;51.106;3.684;2022-08-06T10:00:00;3.00;;;0.70;;
22774;SDS011;11554;51.106;3.684;2022-08-06T10:05:08;3.00;;;0.70;;
22774;SDS011;11554;51.106;3.684;2022-08-06T10:10:00;1.90;;;0.70;;
22774;SDS011;11554;51.106;3.684;2022-08-06T10:15:00;1.90;;;0.70;;
22774;SDS011;11554;51.106;3.684;2022-08-06T10:20:06;3.00;;;0.70;;
22774;SDS011;11554;51.106;3.684;2022-08-06T10:25:02;3.00;;;0.70;;
22774;SDS011;11554;51.106;3.684;2022-08-06T10:30:04;3.90;;;0.80;;
22774;SDS011;11554;51.106;3.684;2022-08-06T10:35:02;3.90;;;0.80;;
22774;SDS011;11554;51.106;3.684;2022-08-06T10:40:01;2.70;;;0.90;;
22774;SDS011;11554;51.106;3.684;2022-08-06T10:45:00;2.70;;;0.90;;
22774;SDS011;11554;51.106;3.684;2022-08-06T10:50:00;2.80;;;0.90;;
22774;SDS011;11554;51.106;3.684;2022-08-06T10:55:00;2.80;;;0.90;;
22774;SDS011;11554;51.106;3.684;2022-08-06T11:00:01;3.10;;;0.90;;
22774;SDS011;11554;51.106;3.684;2022-08-06T11:05:02;3.10;;;0.90;;
22774;SDS011;11554;51.106;3.684;2022-08-06T11:10:11;2.90;;;0.80;;
22774;SDS011;11554;51.106;3.684;2022-08-06T11:15:00;2.90;;;0.80;;
22774;SDS011;11554;51.106;3.684;2022-08-06T11:20:01;3.50;;;0.90;;
22774;SDS011;11554;51.106;3.684;2022-08-06T11:25:01;3.50;;;0.90;;
22774;SDS011;11554;51.106;3.684;2022-08-06T11:30:07;4.00;;;0.80;;
22774;SDS011;11554;51.106;3.684;2022-08-06T11:40:05;3.00;;;0.80;;
22774;SDS011;11554;51.106;3.684;2022-08-06T11:45:00;3.00;;;0.80;;
22774;SDS011;11554;51.106;3.684;2022-08-06T11:50:00;4.20;;;0.80;;
22774;SDS011;11554;51.106;3.684;2022-08-06T11:55:01;4.20;;;0.80;;
22774;SDS011;11554;51.106;3.684;2022-08-06T12:00:04;2.70;;;0.60;;
22774;SDS011;11554;51.106;3.684;2022-08-06T12:05:00;2.70;;;0.60;;
22774;SDS011;11554;51.106;3.684;2022-08-06T12:10:03;2.10;;;0.60;;
22774;SDS011;11554;51.106;3.684;2022-08-06T12:15:02;2.10;;;0.60;;
22774;SDS011;11554;51.106;3.684;2022-08-06T12:20:00;2.10;;;0.50;;
22774;SDS011;11554;51.106;3.684;2022-08-06T12:25:03;2.10;;;0.50;;
22774;SDS011;11554;51.106;3.684;2022-08-06T12:30:02;1.80;;;0.60;;
22774;SDS011;11554;51.106;3.684;2022-08-06T12:35:02;1.80;;;0.60;;
22774;SDS011;11554;51.106;3.684;2022-08-06T12:40:00;3.00;;;0.70;;
22774;SDS011;11554;51.106;3.684;2022-08-06T12:45:00;3.00;;;0.70;;
22774;SDS011;11554;51.106;3.684;2022-08-06T12:50:00;3.20;;;0.50;;
22774;SDS011;11554;51.106;3.684;2022-08-06T12:55:04;3.20;;;0.50;;
22774;SDS011;11554;51.106;3.684;2022-08-06T13:00:00;3.20;;;0.60;;
22774;SDS011;11554;51.106;3.684;2022-08-06T13:05:00;3.20;;;0.60;;
22774;SDS011;11554;51.106;3.684;2022-08-06T13:10:00;1.50;;;0.50;;
22774;SDS011;11554;51.106;3.684;2022-08-06T13:15:00;1.50;;;0.50;;
22774;SDS011;11554;51.106;3.684;2022-08-06T13:20:00;3.00;;;0.50;;
22774;SDS011;11554;51.106;3.684;2022-08-06T13:25:11;3.00;;;0.50;;
22774;SDS011;11554;51.106;3.684;2022-08-06T13:30:01;2.60;;;0.80;;
22774;SDS011;11554;51.106;3.684;2022-08-06T13:35:03;2.60;;;0.80;;
22774;SDS011;11554;51.106;3.684;2022-08-06T13:40:00;2.20;;;0.70;;
22774;SDS011;11554;51.106;3.684;2022-08-06T13:45:18;2.20;;;0.70;;
22774;SDS011;11554;51.106;3.684;2022-08-06T13:50:00;2.20;;;0.80;;
22774;SDS011;11554;51.106;3.684;2022-08-06T13:55:01;2.20;;;0.80;;
22774;SDS011;11554;51.106;3.684;2022-08-06T14:00:00;2.00;;;0.80;;
22774;SDS011;11554;51.106;3.684;2022-08-06T14:05:00;2.00;;;0.80;;
22774;SDS011;11554;51.106;3.684;2022-08-06T14:10:00;2.10;;;0.70;;
22774;SDS011;11554;51.106;3.684;2022-08-06T14:15:01;2.10;;;0.70;;
22774;SDS011;11554;51.106;3.684;2022-08-06T14:20:00;1.90;;;0.70;;
22774;SDS011;11554;51.106;3.684;2022-08-06T14:25:00;1.90;;;0.70;;
22774;SDS011;11554;51.106;3.684;2022-08-06T14:30:00;4.30;;;0.90;;
22774;SDS011;11554;51.106;3.684;2022-08-06T14:35:00;4.30;;;0.90;;
22774;SDS011;11554;51.106;3.684;2022-08-06T14:40:00;2.80;;;0.70;;
22774;SDS011;11554;51.106;3.684;2022-08-06T14:45:00;2.80;;;0.70;;
22774;SDS011;11554;51.106;3.684;2022-08-06T14:50:00;3.70;;;0.70;;
22774;SDS011;11554;51.106;3.684;2022-08-06T14:55:00;3.70;;;0.70;;
22774;SDS011;11554;51.106;3.684;2022-08-06T15:00:00;3.70;;;0.80;;
22774;SDS011;11554;51.106;3.684;2022-08-06T15:05:00;3.70;;;0.80;;
22774;SDS011;11554;51.106;3.684;2022-08-06T15:10:00;1.70;;;0.70;;
22774;SDS011;11554;51.106;3.684;2022-08-06T15:15:00;1.70;;;0.70;;
22774;SDS011;11554;51.106;3.684;2022-08-06T15:20:00;3.20;;;0.70;;
22774;SDS011;11554;51.106;3.684;2022-08-06T15:25:00;3.20;;;0.70;;
22774;SDS011;11554;51.106;3.684;2022-08-06T15:30:00;3.50;;;0.80;;
22774;SDS011;11554;51.106;3.684;2022-08-06T15:35:00;3.50;;;0.80;;
22774;SDS011;11554;51.106;3.684;2022-08-06T15:40:00;2.40;;;0.70;;
22774;SDS011;11554;51.106;3.684;2022-08-06T15:45:00;2.40;;;0.70;;
22774;SDS011;11554;51.106;3.684;2022-08-06T15:50:00;2.00;;;0.60;;
22774;SDS011;11554;51.106;3.684;2022-08-06T15:55:00;2.00;;;0.60;;
22774;SDS011;11554;51.106;3.684;2022-08-06T16:00:00;3.20;;;0.80;;
22774;SDS011;11554;51.106;3.684;2022-08-06T16:05:00;3.20;;;0.80;;
22774;SDS011;11554;51.106;3.684;2022-08-06T16:10:00;3.40;;;0.60;;
22774;SDS011;11554;51.106;3.684;2022-08-06T16:15:00;3.40;;;0.60;;
22774;SDS011;11554;51.106;3.684;2022-08-06T16:20:01;3.00;;;0.60;;
22774;SDS011;11554;51.106;3.684;2022-08-06T16:25:00;3.00;;;0.60;;
22774;SDS011;11554;51.106;3.684;2022-08-06T16:30:00;4.70;;;2.50;;
22774;SDS011;11554;51.106;3.684;2022-08-06T16:35:00;4.70;;;2.50;;
22774;SDS011;11554;51.106;3.684;2022-08-06T16:40:00;2.30;;;1.10;;
22774;SDS011;11554;51.106;3.684;2022-08-06T16:45:00;2.30;;;1.10;;
22774;SDS011;11554;51.106;3.684;2022-08-06T16:50:00;2.00;;;0.70;;
22774;SDS011;11554;51.106;3.684;2022-08-06T16:55:00;2.00;;;0.70;;
22774;SDS011;11554;51.106;3.684;2022-08-06T17:00:00;2.60;;;0.60;;
22774;SDS011;11554;51.106;3.684;2022-08-06T17:05:00;2.60;;;0.60;;
22774;SDS011;11554;51.106;3.684;2022-08-06T17:10:00;3.60;;;0.90;;
22774;SDS011;11554;51.106;3.684;2022-08-06T17:15:00;3.60;;;0.90;;
22774;SDS011;11554;51.106;3.684;2022-08-06T17:20:00;3.10;;;0.80;;
22774;SDS011;11554;51.106;3.684;2022-08-06T17:25:00;3.10;;;0.80;;
22774;SDS011;11554;51.106;3.684;2022-08-06T17:30:00;1.90;;;0.60;;
22774;SDS011;11554;51.106;3.684;2022-08-06T17:35:00;1.90;;;0.60;;
22774;SDS011;11554;51.106;3.684;2022-08-06T17:40:00;4.80;;;1.30;;
22774;SDS011;11554;51.106;3.684;2022-08-06T17:45:00;4.80;;;1.30;;
22774;SDS011;11554;51.106;3.684;2022-08-06T17:50:00;2.70;;;0.70;;
22774;SDS011;11554;51.106;3.684;2022-08-06T17:55:00;2.70;;;0.70;;
22774;SDS011;11554;51.106;3.684;2022-08-06T18:00:00;2.10;;;0.60;;
22774;SDS011;11554;51.106;3.684;2022-08-06T18:05:00;2.10;;;0.60;;
22774;SDS011;11554;51.106;3.684;2022-08-06T18:10:01;3.70;;;1.10;;
22774;SDS011;11554;51.106;3.684;2022-08-06T18:15:00;3.70;;;1.10;;
22774;SDS011;11554;51.106;3.684;2022-08-06T18:20:00;4.20;;;2.50;;
22774;SDS011;11554;51.106;3.684;2022-08-06T18:25:00;4.20;;;2.50;;
22774;SDS011;11554;51.106;3.684;2022-08-06T18:30:00;3.40;;;0.70;;
22774;SDS011;11554;51.106;3.684;2022-08-06T18:35:00;3.40;;;0.70;;
22774;SDS011;11554;51.106;3.684;2022-08-06T18:40:00;10.60;;;4.90;;
22774;SDS011;11554;51.106;3.684;2022-08-06T18:45:00;10.60;;;4.90;;
22774;SDS011;11554;51.106;3.684;2022-08-06T18:50:00;2.80;;;0.80;;
22774;SDS011;11554;51.106;3.684;2022-08-06T18:55:00;2.80;;;0.80;;
22774;SDS011;11554;51.106;3.684;2022-08-06T19:00:00;6.20;;;1.10;;
22774;SDS011;11554;51.106;3.684;2022-08-06T19:05:00;6.20;;;1.10;;
22774;SDS011;11554;51.106;3.684;2022-08-06T19:10:00;2.80;;;1.00;;
22774;SDS011;11554;51.106;3.684;2022-08-06T19:15:00;2.80;;;1.00;;
22774;SDS011;11554;51.106;3.684;2022-08-06T19:20:00;3.80;;;0.90;;
22774;SDS011;11554;51.106;3.684;2022-08-06T19:25:00;3.80;;;0.90;;
22774;SDS011;11554;51.106;3.684;2022-08-06T19:30:01;4.00;;;1.00;;
22774;SDS011;11554;51.106;3.684;2022-08-06T19:35:00;4.00;;;1.00;;
22774;SDS011;11554;51.106;3.684;2022-08-06T19:40:00;3.70;;;1.20;;
22774;SDS011;11554;51.106;3.684;2022-08-06T19:45:01;3.70;;;1.20;;
22774;SDS011;11554;51.106;3.684;2022-08-06T19:50:00;3.90;;;1.10;;
22774;SDS011;11554;51.106;3.684;2022-08-06T19:55:00;3.90;;;1.10;;
22774;SDS011;11554;51.106;3.684;2022-08-06T20:00:00;3.00;;;1.20;;
22774;SDS011;11554;51.106;3.684;2022-08-06T20:05:00;3.00;;;1.20;;
22774;SDS011;11554;51.106;3.684;2022-08-06T20:10:00;5.20;;;1.00;;
22774;SDS011;11554;51.106;3.684;2022-08-06T20:15:01;5.20;;;1.00;;
22774;SDS011;11554;51.106;3.684;2022-08-06T20:20:00;3.10;;;1.00;;
22774;SDS011;11554;51.106;3.684;2022-08-06T20:25:00;3.10;;;1.00;;
22774;SDS011;11554;51.106;3.684;2022-08-06T20:30:00;3.00;;;1.00;;
22774;SDS011;11554;51.106;3.684;2022-08-06T20:35:00;3.00;;;1.00;;
22774;SDS011;11554;51.106;3.684;2022-08-06T20:40:00;7.10;;;1.20;;
22774;SDS011;11554;51.106;3.684;2022-08-06T20:45:00;7.10;;;1.20;;
22774;SDS011;11554;51.106;3.684;2022-08-06T20:50:00;3.60;;;1.30;;
22774;SDS011;11554;51.106;3.684;2022-08-06T20:55:00;3.60;;;1.30;;
22774;SDS011;11554;51.106;3.684;2022-08-06T21:00:01;3.30;;;1.10;;
22774;SDS011;11554;51.106;3.684;2022-08-06T21:05:01;3.30;;;1.10;;
22774;SDS011;11554;51.106;3.684;2022-08-06T21:10:00;2.30;;;1.10;;
22774;SDS011;11554;51.106;3.684;2022-08-06T21:15:00;2.30;;;1.10;;
22774;SDS011;11554;51.106;3.684;2022-08-06T21:20:00;4.70;;;1.90;;
22774;SDS011;11554;51.106;3.684;2022-08-06T21:25:00;4.70;;;1.90;;
22774;SDS011;11554;51.106;3.684;2022-08-06T21:30:00;3.90;;;1.60;;
22774;SDS011;11554;51.106;3.684;2022-08-06T21:35:00;3.90;;;1.60;;
22774;SDS011;11554;51.106;3.684;2022-08-06T21:40:00;5.40;;;2.20;;
22774;SDS011;11554;51.106;3.684;2022-08-06T21:45:00;5.40;;;2.20;;
22774;SDS011;11554;51.106;3.684;2022-08-06T21:50:00;3.70;;;1.80;;
22774;SDS011;11554;51.106;3.684;2022-08-06T21:55:02;3.70;;;1.80;;
22774;SDS011;11554;51.106;3.684;2022-08-06T22:00:00;4.00;;;1.80;;
22774;SDS011;11554;51.106;3.684;2022-08-06T22:05:00;4.00;;;1.80;;
22774;SDS011;11554;51.106;3.684;2022-08-06T22:10:00;4.30;;;1.90;;
22774;SDS011;11554;51.106;3.684;2022-08-06T22:15:00;4.30;;;1.90;;
22774;SDS011;11554;51.106;3.684;2022-08-06T22:20:00;5.00;;;2.10;;
22774;SDS011;11554;51.106;3.684;2022-08-06T22:25:00;5.00;;;2.10;;
22774;SDS011;11554;51.106;3.684;2022-08-06T22:30:00;4.60;;;1.90;;
22774;SDS011;11554;51.106;3.684;2022-08-06T22:35:00;4.60;;;1.90;;
22774;SDS011;11554;51.106;3.684;2022-08-06T22:40:00;4.90;;;2.10;;
22774;SDS011;11554;51.106;3.684;2022-08-06T22:45:00;4.90;;;2.10;;
22774;SDS011;11554;51.106;3.684;2022-08-06T22:50:00;4.20;;;1.90;;
22774;SDS011;11554;51.106;3.684;2022-08-06T22:55:00;4.20;;;1.90;;
22774;SDS011;11554;51.106;3.684;2022-08-06T23:00:00;4.10;;;2.00;;
22774;SDS011;11554;51.106;3.684;2022-08-06T23:05:00;4.10;;;2.00;;
22774;SDS011;11554;51.106;3.684;2022-08-06T23:10:00;5.10;;;2.60;;
22774;SDS011;11554;51.106;3.684;2022-08-06T23:15:00;5.10;;;2.60;;
22774;SDS011;11554;51.106;3.684;2022-08-06T23:20:00;4.30;;;2.50;;
22774;SDS011;11554;51.106;3.684;2022-08-06T23:25:00;4.30;;;2.50;;
22774;SDS011;11554;51.106;3.684;2022-08-06T23:30:00;4.30;;;2.60;;
22774;SDS011;11554;51.106;3.684;2022-08-06T23:35:00;4.30;;;2.60;;
22774;SDS011;11554;51.106;3.684;2022-08-06T23:40:00;4.20;;;2.50;;
22774;SDS011;11554;51.106;3.684;2022-08-06T23:45:00;4.20;;;2.50;;
22774;SDS011;11554;51.106;3.684;2022-08-06T23:50:00;5.20;;;3.00;;
22774;SDS011;11554;51.106;3.684;2022-08-06T23:55:00;5.20;;;3.00;;
